Time;durP1;ratioP1;P1;durP2;ratioP2;P2;SDS_P1;SDS_P2;PMS_P1;PMS_P2;Temp;Humidity;BMP_temperature;BMP_pressure;BME280_temperature;BME280_humidity;BME280_pressure;Samples;Min_cycle;Max_cycle;Signal;HPM_P1;HPM_P2
2022/06/04 00:00:26;;;;;;;21.38;8.63;;;;;;;;;;5095149;28;20039;-64
2022/06/04 00:02:52;;;;;;;19.25;8.75;;;;;;;;;;5101394;28;20401;-64
2022/06/04 00:05:21;;;;;;;20.75;8.07;;;;;;;;;;5084084;28;20140;-64
2022/06/04 00:07:47;;;;;;;20.10;8.38;;;;;;;;;;5079297;28;20368;-64
2022/06/04 00:15:48;;;;;;;21.27;8.93;;;;;;;;;;5095684;28;20052;-65
2022/06/04 00:18:15;;;;;;;15.85;8.50;;;;;;;;;;5099774;28;20122;-64
2022/06/04 00:20:41;;;;;;;18.67;8.05;;;;;;;;;;5100103;28;20043;-64
2022/06/04 00:23:09;;;;;;;23.40;8.75;;;;;;;;;;5098561;28;20106;-64
2022/06/04 00:25:36;;;;;;;19.83;8.30;;;;;;;;;;5097525;28;20035;-64
2022/06/04 00:28:04;;;;;;;21.35;9.45;;;;;;;;;;5097864;28;20467;-65
2022/06/04 00:30:30;;;;;;;16.40;8.00;;;;;;;;;;5079152;27;20054;-64
2022/06/04 00:32:56;;;;;;;16.42;8.15;;;;;;;;;;5098706;28;20052;-64
2022/06/04 00:35:23;;;;;;;19.75;8.75;;;;;;;;;;5098117;28;20069;-65
2022/06/04 00:37:49;;;;;;;14.82;7.25;;;;;;;;;;5100017;28;20059;-64
2022/06/04 00:40:20;;;;;;;16.48;7.63;;;;;;;;;;5083163;28;20043;-65
2022/06/04 00:42:46;;;;;;;18.52;7.25;;;;;;;;;;5094398;27;20048;-65
2022/06/04 00:45:21;;;;;;;16.88;7.25;;;;;;;;;;5080995;28;20169;-64
2022/06/04 00:47:48;;;;;;;17.98;7.15;;;;;;;;;;5081298;28;20065;-65
2022/06/04 00:50:16;;;;;;;17.92;6.75;;;;;;;;;;5098043;28;20051;-65
2022/06/04 00:52:43;;;;;;;14.02;7.07;;;;;;;;;;5096687;28;20036;-64
2022/06/04 00:55:10;;;;;;;18.35;6.07;;;;;;;;;;5101279;28;20043;-65
2022/06/04 00:57:39;;;;;;;20.52;7.05;;;;;;;;;;5101263;28;21432;-65
2022/06/04 01:00:10;;;;;;;15.45;6.38;;;;;;;;;;5103879;28;20043;-65
2022/06/04 01:02:41;;;;;;;14.77;6.70;;;;;;;;;;5090928;28;20122;-65
2022/06/04 01:05:18;;;;;;;21.52;7.22;;;;;;;;;;5100415;28;20052;-64
2022/06/04 01:07:47;;;;;;;18.92;5.90;;;;;;;;;;5101299;28;20048;-64
2022/06/04 01:10:32;;;;;;;21.65;7.05;;;;;;;;;;5096292;28;20128;-65
2022/06/04 01:12:59;;;;;;;13.32;6.50;;;;;;;;;;5098793;28;20101;-64
2022/06/04 01:15:29;;;;;;;17.85;6.38;;;;;;;;;;5093089;28;20046;-64
2022/06/04 01:18:02;;;;;;;17.55;6.80;;;;;;;;;;5100336;28;20085;-65
2022/06/04 01:20:38;;;;;;;17.77;7.07;;;;;;;;;;5098217;28;20074;-64
2022/06/04 01:23:20;;;;;;;17.10;6.70;;;;;;;;;;5093711;28;20083;-64
2022/06/04 01:26:05;;;;;;;15.07;6.75;;;;;;;;;;5097577;28;20039;-64
2022/06/04 01:28:32;;;;;;;16.85;6.68;;;;;;;;;;5092545;28;20044;-65
2022/06/04 01:31:03;;;;;;;23.55;8.32;;;;;;;;;;5100694;28;20043;-65
2022/06/04 01:33:30;;;;;;;23.35;7.53;;;;;;;;;;5099199;28;20040;-64
2022/06/04 01:36:00;;;;;;;17.30;6.45;;;;;;;;;;5100332;28;20126;-64
2022/06/04 01:38:30;;;;;;;13.88;6.32;;;;;;;;;;5101059;28;20112;-64
2022/06/04 01:41:07;;;;;;;20.42;7.97;;;;;;;;;;5097552;28;20039;-65
2022/06/04 01:43:43;;;;;;;19.80;6.43;;;;;;;;;;5094461;28;20504;-65
2022/06/04 01:46:12;;;;;;;12.00;6.68;;;;;;;;;;5073472;28;20392;-64
2022/06/04 01:48:40;;;;;;;14.57;6.22;;;;;;;;;;5076606;28;20048;-64
2022/06/04 01:51:07;;;;;;;19.92;6.05;;;;;;;;;;5079387;28;20047;-64
2022/06/04 01:53:36;;;;;;;14.95;6.00;;;;;;;;;;5077135;28;20105;-65
2022/06/04 01:56:05;;;;;;;16.92;6.07;;;;;;;;;;5080037;28;20622;-64
2022/06/04 01:58:36;;;;;;;12.82;5.80;;;;;;;;;;5078185;28;20032;-64
2022/06/04 02:01:05;;;;;;;9.95;5.60;;;;;;;;;;5077969;28;20059;-65
2022/06/04 02:03:38;;;;;;;12.93;6.20;;;;;;;;;;5077129;28;20152;-65
2022/06/04 02:06:07;;;;;;;16.27;6.30;;;;;;;;;;5062380;28;20088;-65
2022/06/04 02:08:38;;;;;;;16.38;5.30;;;;;;;;;;5077982;28;20131;-65
2022/06/04 02:11:08;;;;;;;16.73;6.30;;;;;;;;;;5076742;28;20044;-65
2022/06/04 02:13:34;;;;;;;13.18;5.28;;;;;;;;;;5073866;28;20336;-64
2022/06/04 02:16:03;;;;;;;10.25;5.25;;;;;;;;;;5059615;28;20046;-65
2022/06/04 02:18:29;;;;;;;14.82;5.97;;;;;;;;;;5075073;28;20063;-65
2022/06/04 02:20:56;;;;;;;15.93;5.80;;;;;;;;;;5078083;28;20123;-64
2022/06/04 02:23:22;;;;;;;10.95;6.07;;;;;;;;;;5077361;28;20051;-64
2022/06/04 02:25:48;;;;;;;13.07;6.75;;;;;;;;;;5078288;28;20111;-65
2022/06/04 02:28:15;;;;;;;15.15;5.80;;;;;;;;;;5074685;28;20411;-65
2022/06/04 02:31:07;;;;;;;11.93;5.30;;;;;;;;;;5079845;28;20412;-64
2022/06/04 02:33:42;;;;;;;13.55;5.95;;;;;;;;;;5060610;28;20048;-66
2022/06/04 02:36:11;;;;;;;15.43;5.63;;;;;;;;;;5080562;28;20126;-65
2022/06/04 02:38:45;;;;;;;12.80;5.80;;;;;;;;;;5078996;28;20656;-65
2022/06/04 02:41:11;;;;;;;;;;;;;;;;;;5073974;28;20600;-64
2022/06/04 02:43:42;;;;;;;18.15;5.65;;;;;;;;;;5064290;28;19928;-65
2022/06/04 02:46:22;;;;;;;14.60;6.10;;;;;;;;;;5101786;28;20180;-65
2022/06/04 02:48:59;;;;;;;13.75;5.82;;;;;;;;;;5096806;28;20047;-65
2022/06/04 02:51:28;;;;;;;14.10;6.40;;;;;;;;;;5100569;28;20047;-64
2022/06/04 02:53:54;;;;;;;17.67;6.70;;;;;;;;;;5099246;28;20047;-65
2022/06/04 02:56:24;;;;;;;10.32;5.40;;;;;;;;;;5098852;28;20043;-65
2022/06/04 02:58:52;;;;;;;10.43;5.57;;;;;;;;;;5101987;28;20212;-64
2022/06/04 03:01:20;;;;;;;13.32;6.18;;;;;;;;;;5094829;28;20041;-64
2022/06/04 03:03:46;;;;;;;11.35;5.72;;;;;;;;;;5097821;28;20360;-65
2022/06/04 03:06:21;;;;;;;14.68;6.13;;;;;;;;;;5098276;28;20072;-65
2022/06/04 03:08:47;;;;;;;11.43;5.22;;;;;;;;;;5099925;28;20079;-64
2022/06/04 03:11:14;;;;;;;16.05;5.70;;;;;;;;;;5095003;28;20433;-65
2022/06/04 03:13:40;;;;;;;14.10;5.90;;;;;;;;;;5097962;28;20032;-65
2022/06/04 03:16:06;;;;;;;10.38;5.75;;;;;;;;;;5096223;28;20131;-64
2022/06/04 03:18:32;;;;;;;17.45;5.88;;;;;;;;;;5095433;28;20475;-64
2022/06/04 03:20:58;;;;;;;10.38;5.88;;;;;;;;;;5096872;28;20039;-65
2022/06/04 03:23:25;;;;;;;15.48;7.03;;;;;;;;;;5098406;28;20051;-65
2022/06/04 03:25:51;;;;;;;14.32;6.00;;;;;;;;;;5104567;28;20039;-65
2022/06/04 03:28:17;;;;;;;12.25;5.75;;;;;;;;;;5101954;28;20108;-65
2022/06/04 03:30:43;;;;;;;13.18;6.13;;;;;;;;;;5097518;28;20134;-64
2022/06/04 03:33:09;;;;;;;14.45;6.85;;;;;;;;;;5100894;28;20072;-65
2022/06/04 03:35:36;;;;;;;18.23;7.38;;;;;;;;;;5101123;28;20044;-64
2022/06/04 03:38:02;;;;;;;11.88;6.55;;;;;;;;;;5103446;28;20040;-65
2022/06/04 03:40:28;;;;;;;11.63;7.05;;;;;;;;;;5101318;28;20154;-64
2022/06/04 03:42:55;;;;;;;15.63;7.45;;;;;;;;;;5100137;28;20423;-65
2022/06/04 03:45:21;;;;;;;14.60;6.63;;;;;;;;;;5062350;28;20142;-65
2022/06/04 03:47:47;;;;;;;13.85;6.95;;;;;;;;;;5084192;28;20032;-65
2022/06/04 03:50:15;;;;;;;14.57;7.07;;;;;;;;;;5080193;28;20079;-64
2022/06/04 03:52:41;;;;;;;16.35;5.93;;;;;;;;;;5063780;28;20426;-65
2022/06/04 03:55:08;;;;;;;10.65;6.50;;;;;;;;;;5081747;28;20048;-65
2022/06/04 03:57:39;;;;;;;16.05;6.43;;;;;;;;;;5079969;28;20051;-65
2022/06/04 04:00:07;;;;;;;13.18;6.05;;;;;;;;;;5080128;28;20041;-65
2022/06/04 04:02:33;;;;;;;16.40;6.05;;;;;;;;;;5078182;28;20382;-65
2022/06/04 04:05:00;;;;;;;9.88;6.07;;;;;;;;;;5082440;28;20040;-65
2022/06/04 04:07:26;;;;;;;10.57;5.70;;;;;;;;;;5077443;28;20056;-64
2022/06/04 04:09:52;;;;;;;10.43;5.38;;;;;;;;;;5076370;28;20395;-64
2022/06/04 04:12:18;;;;;;;15.57;5.45;;;;;;;;;;5080075;28;20117;-65
2022/06/04 04:14:44;;;;;;;8.50;5.07;;;;;;;;;;5079643;28;20044;-65
2022/06/04 04:17:11;;;;;;;11.93;4.95;;;;;;;;;;5080180;28;20223;-65
2022/06/04 04:19:37;;;;;;;9.43;5.35;;;;;;;;;;5077469;28;20127;-65
2022/06/04 04:22:04;;;;;;;10.68;5.88;;;;;;;;;;5058768;28;20036;-65
2022/06/04 04:24:30;;;;;;;7.70;4.72;;;;;;;;;;5081269;28;20166;-65
2022/06/04 04:26:56;;;;;;;9.10;5.22;;;;;;;;;;5078045;28;20116;-64
2022/06/04 04:29:22;;;;;;;11.63;5.32;;;;;;;;;;5076471;28;20087;-63
2022/06/04 04:31:50;;;;;;;10.90;5.20;;;;;;;;;;5072236;28;20036;-64
2022/06/04 04:34:16;;;;;;;10.70;5.32;;;;;;;;;;5076335;28;20063;-64
2022/06/04 04:36:42;;;;;;;9.18;5.50;;;;;;;;;;5060342;28;20162;-65
2022/06/04 04:39:08;;;;;;;8.68;5.00;;;;;;;;;;5082488;28;20044;-65
2022/06/04 04:41:36;;;;;;;13.32;5.60;;;;;;;;;;5061829;28;20455;-65
2022/06/04 04:44:02;;;;;;;10.35;5.18;;;;;;;;;;5086129;28;20055;-64
2022/06/04 04:46:29;;;;;;;8.60;4.68;;;;;;;;;;5096700;28;20048;-64
2022/06/04 04:48:55;;;;;;;10.20;4.93;;;;;;;;;;5083239;28;20056;-65
2022/06/04 04:51:23;;;;;;;10.25;5.57;;;;;;;;;;5078485;28;20039;-64
2022/06/04 04:53:50;;;;;;;11.18;5.80;;;;;;;;;;5101420;28;20062;-65
2022/06/04 04:56:18;;;;;;;9.98;6.45;;;;;;;;;;5102981;28;20823;-65
2022/06/04 04:58:44;;;;;;;15.57;6.45;;;;;;;;;;5104384;28;20086;-65
2022/06/04 05:01:17;;;;;;;10.30;6.43;;;;;;;;;;5102117;28;20154;-65
2022/06/04 05:03:44;;;;;;;9.75;5.35;;;;;;;;;;5096612;28;20039;-65
2022/06/04 05:06:11;;;;;;;8.95;4.15;;;;;;;;;;5097511;28;20475;-65
2022/06/04 05:08:37;;;;;;;13.90;6.10;;;;;;;;;;5098006;28;20040;-64
2022/06/04 05:11:11;;;;;;;12.38;4.93;;;;;;;;;;5099907;28;20101;-64
2022/06/04 05:13:37;;;;;;;11.18;4.95;;;;;;;;;;5099187;28;20043;-65
2022/06/04 05:16:03;;;;;;;11.32;5.85;;;;;;;;;;5100602;28;20139;-64
2022/06/04 05:18:30;;;;;;;10.13;5.05;;;;;;;;;;5103797;28;20056;-64
2022/06/04 05:21:06;;;;;;;9.43;4.15;;;;;;;;;;5098747;28;20051;-64
2022/06/04 05:23:32;;;;;;;10.77;4.80;;;;;;;;;;5098785;28;20097;-64
2022/06/04 05:25:59;;;;;;;9.55;4.63;;;;;;;;;;5102791;28;20126;-64
2022/06/04 05:28:25;;;;;;;7.75;4.30;;;;;;;;;;5086144;28;20176;-65
2022/06/04 05:30:51;;;;;;;8.25;4.43;;;;;;;;;;5099610;28;20035;-65
2022/06/04 05:33:18;;;;;;;8.25;4.07;;;;;;;;;;5079624;28;20048;-65
2022/06/04 05:35:44;;;;;;;8.95;4.20;;;;;;;;;;5102778;28;20492;-65
2022/06/04 05:38:10;;;;;;;7.65;4.10;;;;;;;;;;5103552;28;20133;-63
2022/06/04 05:40:36;;;;;;;7.45;4.30;;;;;;;;;;5104577;28;20052;-65
2022/06/04 05:43:02;;;;;;;8.45;3.85;;;;;;;;;;5105280;27;20059;-65
2022/06/04 05:45:28;;;;;;;10.23;4.32;;;;;;;;;;5098418;28;20155;-66
2022/06/04 05:47:55;;;;;;;9.73;4.10;;;;;;;;;;5101348;27;20131;-65
2022/06/04 05:50:22;;;;;;;10.43;4.47;;;;;;;;;;5100127;27;20059;-65
2022/06/04 05:52:48;;;;;;;11.13;4.10;;;;;;;;;;5098863;27;20054;-65
2022/06/04 05:55:14;;;;;;;8.75;3.80;;;;;;;;;;5099208;27;20178;-65
2022/06/04 05:57:40;;;;;;;12.25;3.70;;;;;;;;;;5091832;27;20035;-66
2022/06/04 06:00:08;;;;;;;13.77;4.00;;;;;;;;;;5074739;28;20108;-64
2022/06/04 06:02:34;;;;;;;9.18;4.28;;;;;;;;;;5096461;28;20407;-64
2022/06/04 06:05:02;;;;;;;8.68;4.03;;;;;;;;;;5099139;28;20061;-65
2022/06/04 06:07:28;;;;;;;11.05;4.80;;;;;;;;;;5099099;28;20040;-65
2022/06/04 06:09:54;;;;;;;7.68;4.28;;;;;;;;;;5096053;28;20126;-71
2022/06/04 06:12:20;;;;;;;10.77;4.55;;;;;;;;;;5076089;28;20040;-64
2022/06/04 06:14:46;;;;;;;9.38;4.38;;;;;;;;;;5096847;27;20415;-65
2022/06/04 06:17:12;;;;;;;10.15;5.00;;;;;;;;;;5076615;28;20047;-65
2022/06/04 06:19:39;;;;;;;11.45;5.03;;;;;;;;;;5099167;28;20061;-64
2022/06/04 06:22:05;;;;;;;10.48;4.70;;;;;;;;;;5094749;28;20418;-64
2022/06/04 06:24:31;;;;;;;8.80;4.20;;;;;;;;;;5104266;27;20040;-65
2022/06/04 06:26:59;;;;;;;8.25;3.80;;;;;;;;;;5099113;27;20185;-64
2022/06/04 06:29:27;;;;;;;10.55;3.83;;;;;;;;;;5099621;28;20048;-65
2022/06/04 06:31:54;;;;;;;10.48;3.75;;;;;;;;;;5094271;27;20044;-65
2022/06/04 06:34:21;;;;;;;10.48;4.28;;;;;;;;;;5100888;28;20047;-65
2022/06/04 06:36:47;;;;;;;9.55;4.28;;;;;;;;;;5078731;28;20055;-65
2022/06/04 06:39:13;;;;;;;7.57;4.10;;;;;;;;;;5075766;28;20063;-64
2022/06/04 06:41:39;;;;;;;8.20;4.35;;;;;;;;;;5096008;27;20043;-64
2022/06/04 06:44:06;;;;;;;9.45;4.32;;;;;;;;;;5077771;28;20043;-65
2022/06/04 06:46:35;;;;;;;6.82;3.58;;;;;;;;;;5098267;28;20169;-65
2022/06/04 06:49:03;;;;;;;7.82;3.80;;;;;;;;;;5099900;28;20055;-65
2022/06/04 06:51:31;;;;;;;5.85;3.60;;;;;;;;;;5095701;28;20150;-65
2022/06/04 06:53:57;;;;;;;13.70;3.78;;;;;;;;;;5097873;28;20126;-64
2022/06/04 06:56:25;;;;;;;7.47;3.40;;;;;;;;;;5096417;28;20393;-64
2022/06/04 06:58:52;;;;;;;7.53;3.63;;;;;;;;;;5099541;28;20126;-64
2022/06/04 07:01:18;;;;;;;9.38;2.90;;;;;;;;;;5105983;27;20046;-64
2022/06/04 07:03:45;;;;;;;6.95;3.55;;;;;;;;;;5095946;28;20064;-64
2022/06/04 07:06:13;;;;;;;7.40;3.08;;;;;;;;;;5101559;27;20039;-64
2022/06/04 07:08:40;;;;;;;15.25;3.83;;;;;;;;;;5098718;27;20067;-64
2022/06/04 07:11:06;;;;;;;6.35;3.75;;;;;;;;;;5101298;27;20048;-64
2022/06/04 07:13:32;;;;;;;5.72;3.28;;;;;;;;;;5101654;27;20122;-64
2022/06/04 07:15:59;;;;;;;6.55;4.10;;;;;;;;;;5102530;28;20039;-64
2022/06/04 07:18:25;;;;;;;7.93;4.20;;;;;;;;;;5097571;27;20659;-64
2022/06/04 07:20:52;;;;;;;10.38;3.72;;;;;;;;;;5100648;28;20044;-64
2022/06/04 07:23:18;;;;;;;12.23;4.25;;;;;;;;;;5098505;28;20054;-64
2022/06/04 07:25:45;;;;;;;13.02;3.85;;;;;;;;;;5080628;28;20422;-64
2022/06/04 07:28:12;;;;;;;7.30;4.28;;;;;;;;;;5080027;28;20039;-64
2022/06/04 07:30:39;;;;;;;7.97;4.30;;;;;;;;;;5100077;28;20047;-64
2022/06/04 07:33:05;;;;;;;9.45;4.30;;;;;;;;;;5102404;27;20055;-64
2022/06/04 07:35:32;;;;;;;10.43;3.70;;;;;;;;;;5094986;28;20442;-64
2022/06/04 07:37:58;;;;;;;7.50;4.00;;;;;;;;;;5095888;27;20043;-63
2022/06/04 07:40:25;;;;;;;7.53;4.03;;;;;;;;;;5096733;27;20414;-64
2022/06/04 07:42:51;;;;;;;7.72;3.47;;;;;;;;;;5078710;28;20136;-64
2022/06/04 07:45:17;;;;;;;8.07;4.10;;;;;;;;;;5076205;28;20736;-64
2022/06/04 07:47:45;;;;;;;7.78;3.72;;;;;;;;;;5056754;28;20048;-65
2022/06/04 07:50:12;;;;;;;9.93;3.50;;;;;;;;;;5075876;28;20174;-64
2022/06/04 07:52:39;;;;;;;10.50;3.72;;;;;;;;;;5074577;28;20088;-64
2022/06/04 07:55:06;;;;;;;9.43;3.80;;;;;;;;;;5075866;28;20043;-65
2022/06/04 07:57:33;;;;;;;8.38;3.60;;;;;;;;;;5057262;28;20447;-65
2022/06/04 08:00:01;;;;;;;5.85;3.25;;;;;;;;;;5076280;28;20464;-65
2022/06/04 08:02:27;;;;;;;9.85;4.20;;;;;;;;;;5080876;28;20693;-65
2022/06/04 08:04:54;;;;;;;11.07;3.88;;;;;;;;;;5082116;28;20050;-65
2022/06/04 08:07:21;;;;;;;8.70;4.00;;;;;;;;;;5062625;28;20044;-65
2022/06/04 08:09:48;;;;;;;8.88;4.03;;;;;;;;;;5056460;28;20048;-65
2022/06/04 08:12:16;;;;;;;7.63;4.15;;;;;;;;;;5080464;28;20063;-65
2022/06/04 08:14:42;;;;;;;7.35;3.60;;;;;;;;;;5082435;28;20070;-65
2022/06/04 08:17:09;;;;;;;8.00;4.55;;;;;;;;;;5080808;28;20040;-65
2022/06/04 08:19:37;;;;;;;9.50;4.32;;;;;;;;;;5081909;28;20056;-65
2022/06/04 08:22:03;;;;;;;9.02;3.75;;;;;;;;;;5080630;28;20044;-63
2022/06/04 08:24:30;;;;;;;7.18;3.60;;;;;;;;;;5080873;28;20105;-65
2022/06/04 08:26:58;;;;;;;9.23;3.55;;;;;;;;;;5082617;28;20476;-65
2022/06/04 08:29:25;;;;;;;6.35;3.60;;;;;;;;;;5086017;28;20047;-65
2022/06/04 08:31:52;;;;;;;8.68;3.92;;;;;;;;;;5086930;28;20036;-65
2022/06/04 08:34:18;;;;;;;6.35;3.70;;;;;;;;;;5062696;28;20140;-65
2022/06/04 08:36:44;;;;;;;8.30;3.25;;;;;;;;;;5064678;28;20090;-65
2022/06/04 08:39:11;;;;;;;8.95;3.47;;;;;;;;;;5085723;28;20090;-65
2022/06/04 08:41:46;;;;;;;7.55;3.33;;;;;;;;;;5064075;28;20055;-65
2022/06/04 08:44:18;;;;;;;11.30;4.10;;;;;;;;;;5081605;28;20220;-65
2022/06/04 08:46:49;;;;;;;7.05;3.22;;;;;;;;;;5084823;28;20134;-65
2022/06/04 08:49:21;;;;;;;7.53;3.53;;;;;;;;;;5083145;28;20044;-65
2022/06/04 08:51:48;;;;;;;7.95;3.83;;;;;;;;;;5084570;28;20123;-66
2022/06/04 09:00:01;;;;;;;9.45;4.07;;;;;;;;;;5044869;28;20162;-64
2022/06/04 09:02:36;;;;;;;10.23;4.25;;;;;;;;;;5062494;28;20044;-65
2022/06/04 09:05:05;;;;;;;9.85;3.75;;;;;;;;;;5069123;28;20446;-65
2022/06/04 09:07:36;;;;;;;7.20;3.80;;;;;;;;;;5059095;28;20574;-64
2022/06/04 09:10:03;;;;;;;7.10;3.78;;;;;;;;;;5063004;28;20082;-64
2022/06/04 09:12:33;;;;;;;7.80;3.47;;;;;;;;;;5079922;28;20080;-64
2022/06/04 09:15:02;;;;;;;7.63;3.45;;;;;;;;;;5059815;28;20063;-64
2022/06/04 09:17:28;;;;;;;12.00;3.40;;;;;;;;;;5080831;28;20391;-64
2022/06/04 09:19:56;;;;;;;8.70;3.83;;;;;;;;;;5082206;28;20090;-64
2022/06/04 09:22:24;;;;;;;5.53;3.22;;;;;;;;;;5082040;28;20032;-64
2022/06/04 09:24:51;;;;;;;6.57;3.60;;;;;;;;;;5079593;28;20359;-64
2022/06/04 09:27:20;;;;;;;6.22;3.55;;;;;;;;;;5078419;28;20065;-64
2022/06/04 09:29:59;;;;;;;7.57;3.90;;;;;;;;;;5083922;28;20051;-65
2022/06/04 09:32:25;;;;;;;7.13;4.22;;;;;;;;;;5064743;28;20060;-64
2022/06/04 09:34:53;;;;;;;11.82;3.80;;;;;;;;;;5076102;28;20048;-64
2022/06/04 09:37:19;;;;;;;5.40;3.28;;;;;;;;;;5060335;28;20041;-64
2022/06/04 09:39:47;;;;;;;7.47;3.33;;;;;;;;;;5076105;28;20079;-64
2022/06/04 09:42:13;;;;;;;6.10;3.22;;;;;;;;;;5078832;28;20040;-64
2022/06/04 09:44:50;;;;;;;6.63;2.70;;;;;;;;;;5096031;28;20063;-65
2022/06/04 09:47:21;;;;;;;6.40;3.05;;;;;;;;;;5098972;28;20058;-65
2022/06/04 09:49:53;;;;;;;7.35;3.22;;;;;;;;;;5095642;28;20089;-64
2022/06/04 09:52:21;;;;;;;7.50;3.35;;;;;;;;;;5095688;28;20043;-65
2022/06/04 09:54:53;;;;;;;7.43;3.92;;;;;;;;;;5092812;28;20051;-65
2022/06/04 09:57:27;;;;;;;6.03;3.00;;;;;;;;;;5093469;28;20376;-64
2022/06/04 09:59:54;;;;;;;6.40;2.85;;;;;;;;;;5094552;28;20367;-63
2022/06/04 10:02:21;;;;;;;6.38;3.38;;;;;;;;;;5094436;28;20395;-64
2022/06/04 10:04:48;;;;;;;5.47;2.60;;;;;;;;;;5092006;28;20487;-64
2022/06/04 10:07:18;;;;;;;6.75;3.30;;;;;;;;;;5085290;28;20071;-66
2022/06/04 10:09:56;;;;;;;5.85;3.15;;;;;;;;;;5095403;28;20056;-65
2022/06/04 10:15:22;;;;;;;6.30;2.65;;;;;;;;;;5087778;28;20044;-64
2022/06/04 10:17:59;;;;;;;5.47;3.05;;;;;;;;;;5097136;28;20051;-64
2022/06/04 10:20:25;;;;;;;7.38;3.10;;;;;;;;;;5093397;28;20112;-65
2022/06/04 10:22:52;;;;;;;6.32;2.85;;;;;;;;;;5096611;28;20495;-65
2022/06/04 10:25:28;;;;;;;8.13;3.95;;;;;;;;;;5096287;28;20036;-65
2022/06/04 10:28:08;;;;;;;11.18;2.60;;;;;;;;;;5094824;28;20161;-65
2022/06/04 10:31:02;;;;;;;5.18;2.97;;;;;;;;;;5093552;28;20052;-65
2022/06/04 10:33:49;;;;;;;7.15;3.08;;;;;;;;;;5091704;28;20396;-65
2022/06/04 10:36:31;;;;;;;5.65;2.60;;;;;;;;;;5095763;28;20050;-65
2022/06/04 10:39:01;;;;;;;6.10;2.55;;;;;;;;;;5089052;28;20071;-65
2022/06/04 10:41:35;;;;;;;10.52;3.42;;;;;;;;;;5089547;28;20036;-65
2022/06/04 10:44:07;;;;;;;7.45;3.28;;;;;;;;;;5096487;28;20044;-65
2022/06/04 10:46:39;;;;;;;7.13;2.80;;;;;;;;;;5097908;28;20143;-65
2022/06/04 10:49:12;;;;;;;7.23;2.67;;;;;;;;;;5111331;28;20039;-65
2022/06/04 10:51:40;;;;;;;8.38;3.00;;;;;;;;;;5092524;28;20475;-65
2022/06/04 10:54:10;;;;;;;8.70;3.03;;;;;;;;;;5090694;28;20090;-65
2022/06/04 10:56:43;;;;;;;7.55;2.88;;;;;;;;;;5093536;28;20388;-65
2022/06/04 10:59:15;;;;;;;9.55;2.88;;;;;;;;;;5090590;28;20075;-65
2022/06/04 11:01:46;;;;;;;8.47;3.10;;;;;;;;;;5094091;28;20063;-65
2022/06/04 11:04:19;;;;;;;9.40;2.97;;;;;;;;;;5094509;28;20559;-65
2022/06/04 11:06:50;;;;;;;6.15;2.75;;;;;;;;;;5100749;28;20069;-65
2022/06/04 11:09:19;;;;;;;6.07;2.40;;;;;;;;;;5098444;28;20119;-65
2022/06/04 11:11:51;;;;;;;9.68;2.60;;;;;;;;;;5095138;28;20075;-65
2022/06/04 11:14:25;;;;;;;6.55;2.78;;;;;;;;;;5097626;28;20039;-65
2022/06/04 11:16:58;;;;;;;6.32;2.60;;;;;;;;;;5097942;28;20127;-64
2022/06/04 11:19:25;;;;;;;;;;;;;;;;;;5100267;28;20051;-65
2022/06/04 11:21:54;;;;;;;8.18;2.63;;;;;;;;;;5100867;28;20346;-64
2022/06/04 11:24:29;;;;;;;10.02;3.30;;;;;;;;;;5101624;28;20079;-65
2022/06/04 11:27:00;;;;;;;7.35;2.80;;;;;;;;;;5094561;28;20044;-65
2022/06/04 11:29:27;;;;;;;7.43;3.10;;;;;;;;;;5099742;28;20126;-65
2022/06/04 11:32:08;;;;;;;8.02;3.03;;;;;;;;;;5094993;28;20088;-65
2022/06/04 11:34:50;;;;;;;8.75;2.95;;;;;;;;;;5099859;28;20483;-65
2022/06/04 11:37:29;;;;;;;6.13;2.63;;;;;;;;;;5094701;28;20080;-65
2022/06/04 11:40:05;;;;;;;8.23;2.45;;;;;;;;;;5098783;28;20077;-65
2022/06/04 11:42:37;;;;;;;7.38;2.90;;;;;;;;;;5099592;28;20605;-65
2022/06/04 11:45:09;;;;;;;9.13;2.75;;;;;;;;;;5101468;28;20056;-65
2022/06/04 11:47:50;;;;;;;11.27;3.40;;;;;;;;;;5101360;28;20051;-65
2022/06/04 11:50:17;;;;;;;9.45;3.28;;;;;;;;;;5102619;28;20052;-65
2022/06/04 11:52:57;;;;;;;10.80;3.55;;;;;;;;;;5105124;28;20568;-65
2022/06/04 11:55:27;;;;;;;7.80;3.60;;;;;;;;;;5095650;28;20070;-65
2022/06/04 11:58:03;;;;;;;10.95;3.63;;;;;;;;;;5095905;28;20127;-64
2022/06/04 12:00:34;;;;;;;7.13;3.17;;;;;;;;;;5100641;28;20047;-64
2022/06/04 12:03:07;;;;;;;9.43;3.22;;;;;;;;;;5096492;28;20057;-64
2022/06/04 12:05:46;;;;;;;9.00;3.40;;;;;;;;;;5095511;28;20396;-65
2022/06/04 12:08:14;;;;;;;11.27;3.72;;;;;;;;;;5096999;28;20036;-64
2022/06/04 12:10:46;;;;;;;10.90;3.25;;;;;;;;;;5104533;28;20047;-64
2022/06/04 12:13:23;;;;;;;9.00;3.33;;;;;;;;;;5094363;28;20064;-64
2022/06/04 12:15:53;;;;;;;11.15;3.00;;;;;;;;;;5095769;28;20538;-64
2022/06/04 12:18:22;;;;;;;11.43;3.25;;;;;;;;;;5097688;28;20429;-64
2022/06/04 12:26:29;;;;;;;11.30;3.35;;;;;;;;;;5096510;28;20050;-65
2022/06/04 12:28:57;;;;;;;11.20;4.55;;;;;;;;;;5094856;28;20036;-65
2022/06/04 12:31:34;;;;;;;9.10;3.75;;;;;;;;;;5099177;28;20031;-65
2022/06/04 12:34:00;;;;;;;12.43;3.95;;;;;;;;;;5097805;28;20073;-65
2022/06/04 12:36:28;;;;;;;9.55;3.42;;;;;;;;;;5098648;28;20039;-65
2022/06/04 12:38:59;;;;;;;6.60;3.03;;;;;;;;;;5096114;28;20048;-65
2022/06/04 12:41:37;;;;;;;8.20;3.30;;;;;;;;;;5098236;28;20040;-65
2022/06/04 12:44:04;;;;;;;11.80;3.60;;;;;;;;;;5092643;28;20052;-65
2022/06/04 12:46:33;;;;;;;8.48;3.10;;;;;;;;;;5093819;28;20444;-65
2022/06/04 12:49:12;;;;;;;10.75;3.15;;;;;;;;;;5093349;28;20047;-65
2022/06/04 12:51:45;;;;;;;8.45;3.30;;;;;;;;;;5095787;28;20039;-65
2022/06/04 12:54:29;;;;;;;7.18;3.45;;;;;;;;;;5111840;27;20044;-65
2022/06/04 12:56:58;;;;;;;12.05;3.80;;;;;;;;;;5096379;28;20124;-64
2022/06/04 12:59:27;;;;;;;6.78;2.83;;;;;;;;;;5094430;28;20108;-65
2022/06/04 13:01:53;;;;;;;9.73;3.88;;;;;;;;;;5094533;28;20125;-64
2022/06/04 13:04:21;;;;;;;7.30;3.50;;;;;;;;;;5096671;28;20055;-65
2022/06/04 13:06:49;;;;;;;9.95;3.55;;;;;;;;;;5069048;28;20048;-64
2022/06/04 13:09:37;;;;;;;9.20;3.55;;;;;;;;;;5099110;28;20059;-65
2022/06/04 13:12:07;;;;;;;6.90;2.85;;;;;;;;;;5094827;28;20101;-64
2022/06/04 13:14:37;;;;;;;10.95;3.58;;;;;;;;;;5101239;28;20047;-63
2022/06/04 13:17:16;;;;;;;9.00;3.42;;;;;;;;;;5095583;28;20051;-64
2022/06/04 13:19:57;;;;;;;11.95;3.78;;;;;;;;;;5098859;28;20048;-64
2022/06/04 13:22:28;;;;;;;9.50;3.47;;;;;;;;;;5096294;28;20031;-64
2022/06/04 13:24:56;;;;;;;8.75;3.22;;;;;;;;;;5102478;28;20070;-65
2022/06/04 13:27:37;;;;;;;11.50;3.17;;;;;;;;;;5099667;28;20040;-65
2022/06/04 13:30:03;;;;;;;10.00;3.85;;;;;;;;;;5096352;28;20223;-65
2022/06/04 13:32:32;;;;;;;9.38;3.30;;;;;;;;;;5094702;28;21253;-65
2022/06/04 13:35:03;;;;;;;9.82;2.90;;;;;;;;;;5093303;28;20044;-64
2022/06/04 13:37:31;;;;;;;10.65;3.78;;;;;;;;;;5097480;28;20032;-65
2022/06/04 13:40:01;;;;;;;9.55;3.75;;;;;;;;;;5100461;28;20035;-65
2022/06/04 13:42:27;;;;;;;8.80;3.22;;;;;;;;;;5099349;28;20048;-65
2022/06/04 13:44:55;;;;;;;9.15;3.22;;;;;;;;;;5100904;28;20150;-65
2022/06/04 13:47:23;;;;;;;9.98;2.60;;;;;;;;;;5101038;28;20074;-65
2022/06/04 13:49:51;;;;;;;10.23;2.97;;;;;;;;;;5098713;28;20070;-65
2022/06/04 13:52:21;;;;;;;11.57;3.30;;;;;;;;;;5097465;28;20047;-65
2022/06/04 13:54:51;;;;;;;8.27;3.05;;;;;;;;;;5099077;28;20055;-65
2022/06/04 13:57:20;;;;;;;7.43;2.80;;;;;;;;;;5093604;28;20042;-65
2022/06/04 13:59:48;;;;;;;9.40;2.97;;;;;;;;;;5100744;28;20054;-65
2022/06/04 14:02:16;;;;;;;9.55;3.28;;;;;;;;;;5101172;28;20169;-65
2022/06/04 14:07:35;;;;;;;8.93;3.00;;;;;;;;;;5095942;28;20393;-65
2022/06/04 14:10:02;;;;;;;6.90;2.70;;;;;;;;;;5098017;28;20047;-65
2022/06/04 14:12:35;;;;;;;8.95;3.00;;;;;;;;;;5093533;28;20039;-65
2022/06/04 14:15:07;;;;;;;7.65;2.88;;;;;;;;;;5093064;28;20089;-65
2022/06/04 14:17:37;;;;;;;11.60;2.87;;;;;;;;;;5091567;28;20048;-65
2022/06/04 14:20:19;;;;;;;6.93;2.88;;;;;;;;;;5095999;28;20039;-64
2022/06/04 14:22:53;;;;;;;7.75;2.42;;;;;;;;;;5095614;28;20044;-64
2022/06/04 14:25:22;;;;;;;8.43;2.90;;;;;;;;;;5098677;28;20047;-65
2022/06/04 14:27:55;;;;;;;7.47;2.60;;;;;;;;;;5095626;28;20108;-65
2022/06/04 14:30:24;;;;;;;9.85;2.85;;;;;;;;;;5093954;28;20127;-65
2022/06/04 14:32:52;;;;;;;7.95;2.83;;;;;;;;;;5094408;28;20051;-65
2022/06/04 14:35:28;;;;;;;10.73;3.17;;;;;;;;;;5095911;28;20054;-65
2022/06/04 14:37:59;;;;;;;7.57;2.78;;;;;;;;;;5095189;28;20054;-65
2022/06/04 14:40:34;;;;;;;8.93;2.72;;;;;;;;;;5094580;28;20055;-65
2022/06/04 14:43:07;;;;;;;7.95;2.67;;;;;;;;;;5095593;28;20047;-65
2022/06/04 14:45:39;;;;;;;7.05;2.45;;;;;;;;;;5097236;28;20064;-65
2022/06/04 14:48:09;;;;;;;6.32;2.95;;;;;;;;;;5095620;28;20028;-64
2022/06/04 14:50:39;;;;;;;9.20;2.70;;;;;;;;;;5093565;28;20040;-64
2022/06/04 14:53:06;;;;;;;8.02;3.20;;;;;;;;;;5095513;28;20115;-64
2022/06/04 14:55:46;;;;;;;6.40;2.60;;;;;;;;;;5097753;28;20125;-64
2022/06/04 14:58:18;;;;;;;8.82;2.88;;;;;;;;;;5095911;28;20044;-64
2022/06/04 15:00:56;;;;;;;12.20;3.05;;;;;;;;;;5100182;28;20120;-64
2022/06/04 15:03:28;;;;;;;7.43;3.15;;;;;;;;;;5092952;28;20104;-64
2022/06/04 15:05:59;;;;;;;7.05;3.53;;;;;;;;;;5099734;28;20064;-64
2022/06/04 15:08:35;;;;;;;10.32;3.30;;;;;;;;;;5094669;28;20075;-64
2022/06/04 15:11:12;;;;;;;9.57;2.92;;;;;;;;;;5093838;28;20504;-64
2022/06/04 15:13:44;;;;;;;6.82;2.85;;;;;;;;;;5094508;28;20146;-64